sensor_id;sensor_type;location;lat;lon;timestamp;temperature;humidity
4828;DHT22;2428;48.732;9.148;2023-04-06T00:00:47;2.60;99.90
4828;DHT22;2428;48.732;9.148;2023-04-06T00:03:13;2.70;99.90
4828;DHT22;2428;48.732;9.148;2023-04-06T00:05:39;2.70;99.90
4828;DHT22;2428;48.732;9.148;2023-04-06T00:08:04;2.70;99.90
4828;DHT22;2428;48.732;9.148;2023-04-06T00:10:30;2.70;99.90
4828;DHT22;2428;48.732;9.148;2023-04-06T00:12:57;2.70;99.90
4828;DHT22;2428;48.732;9.148;2023-04-06T00:15:23;2.80;99.90
4828;DHT22;2428;48.732;9.148;2023-04-06T00:17:48;2.80;99.90
4828;DHT22;2428;48.732;9.148;2023-04-06T00:20:14;2.80;99.90
4828;DHT22;2428;48.732;9.148;2023-04-06T00:22:40;2.80;99.90
4828;DHT22;2428;48.732;9.148;2023-04-06T00:25:07;2.80;99.90
4828;DHT22;2428;48.732;9.148;2023-04-06T00:27:32;2.80;99.90
4828;DHT22;2428;48.732;9.148;2023-04-06T00:29:58;2.80;99.90
4828;DHT22;2428;48.732;9.148;2023-04-06T00:32:24;2.80;99.90
4828;DHT22;2428;48.732;9.148;2023-04-06T00:34:49;2.70;99.90
4828;DHT22;2428;48.732;9.148;2023-04-06T00:37:15;2.70;99.90
4828;DHT22;2428;48.732;9.148;2023-04-06T00:39:41;2.70;99.90
4828;DHT22;2428;48.732;9.148;2023-04-06T00:42:13;2.70;99.90
4828;DHT22;2428;48.732;9.148;2023-04-06T00:44:40;2.70;99.90
4828;DHT22;2428;48.732;9.148;2023-04-06T00:47:06;2.60;99.90
4828;DHT22;2428;48.732;9.148;2023-04-06T00:49:33;2.60;99.90
4828;DHT22;2428;48.732;9.148;2023-04-06T00:51:58;2.60;99.90
4828;DHT22;2428;48.732;9.148;2023-04-06T00:54:24;2.60;99.90
4828;DHT22;2428;48.732;9.148;2023-04-06T00:56:50;2.50;99.90
4828;DHT22;2428;48.732;9.148;2023-04-06T00:59:16;2.40;99.90
4828;DHT22;2428;48.732;9.148;2023-04-06T01:01:41;2.30;99.90
4828;DHT22;2428;48.732;9.148;2023-04-06T01:04:07;2.30;99.90
4828;DHT22;2428;48.732;9.148;2023-04-06T01:06:32;2.20;99.90
4828;DHT22;2428;48.732;9.148;2023-04-06T01:08:58;2.10;99.90
4828;DHT22;2428;48.732;9.148;2023-04-06T01:11:24;2.10;99.90
4828;DHT22;2428;48.732;9.148;2023-04-06T01:13:50;2.00;99.90
4828;DHT22;2428;48.732;9.148;2023-04-06T01:16:15;2.10;99.90
4828;DHT22;2428;48.732;9.148;2023-04-06T01:18:41;2.00;99.90
4828;DHT22;2428;48.732;9.148;2023-04-06T01:21:08;2.00;99.90
4828;DHT22;2428;48.732;9.148;2023-04-06T01:23:34;1.90;99.90
4828;DHT22;2428;48.732;9.148;2023-04-06T01:26:00;1.90;99.90
4828;DHT22;2428;48.732;9.148;2023-04-06T01:28:26;2.00;99.90
4828;DHT22;2428;48.732;9.148;2023-04-06T01:30:51;2.10;99.90
4828;DHT22;2428;48.732;9.148;2023-04-06T01:33:17;2.00;99.90
4828;DHT22;2428;48.732;9.148;2023-04-06T01:35:43;2.10;99.90
4828;DHT22;2428;48.732;9.148;2023-04-06T01:38:08;2.10;99.90
4828;DHT22;2428;48.732;9.148;2023-04-06T01:40:34;2.10;99.90
4828;DHT22;2428;48.732;9.148;2023-04-06T01:42:59;2.00;99.90
4828;DHT22;2428;48.732;9.148;2023-04-06T01:45:25;2.00;99.90
4828;DHT22;2428;48.732;9.148;2023-04-06T01:47:51;2.00;99.90
4828;DHT22;2428;48.732;9.148;2023-04-06T01:50:17;2.00;99.90
4828;DHT22;2428;48.732;9.148;2023-04-06T01:52:42;2.00;99.90
4828;DHT22;2428;48.732;9.148;2023-04-06T01:55:08;2.00;99.90
4828;DHT22;2428;48.732;9.148;2023-04-06T01:57:34;2.00;99.90
4828;DHT22;2428;48.732;9.148;2023-04-06T02:00:00;2.00;99.90
4828;DHT22;2428;48.732;9.148;2023-04-06T02:02:25;2.00;99.90
4828;DHT22;2428;48.732;9.148;2023-04-06T02:04:51;2.00;99.90
4828;DHT22;2428;48.732;9.148;2023-04-06T02:07:17;2.10;99.90
4828;DHT22;2428;48.732;9.148;2023-04-06T02:09:42;2.20;99.90
4828;DHT22;2428;48.732;9.148;2023-04-06T02:12:08;2.20;99.90
4828;DHT22;2428;48.732;9.148;2023-04-06T02:14:34;2.20;99.90
4828;DHT22;2428;48.732;9.148;2023-04-06T02:16:59;2.30;99.90
4828;DHT22;2428;48.732;9.148;2023-04-06T02:19:25;2.30;99.90
4828;DHT22;2428;48.732;9.148;2023-04-06T02:21:51;2.20;99.90
4828;DHT22;2428;48.732;9.148;2023-04-06T02:24:17;2.20;99.90
4828;DHT22;2428;48.732;9.148;2023-04-06T02:26:42;2.10;99.90
4828;DHT22;2428;48.732;9.148;2023-04-06T02:29:08;2.00;99.90
4828;DHT22;2428;48.732;9.148;2023-04-06T02:31:33;2.00;99.90
4828;DHT22;2428;48.732;9.148;2023-04-06T02:33:59;2.00;99.90
4828;DHT22;2428;48.732;9.148;2023-04-06T02:36:25;2.00;99.90
4828;DHT22;2428;48.732;9.148;2023-04-06T02:38:51;2.00;99.90
4828;DHT22;2428;48.732;9.148;2023-04-06T02:41:17;2.00;99.90
4828;DHT22;2428;48.732;9.148;2023-04-06T02:43:42;1.90;99.90
4828;DHT22;2428;48.732;9.148;2023-04-06T02:46:08;1.90;99.90
4828;DHT22;2428;48.732;9.148;2023-04-06T02:48:34;1.80;99.90
4828;DHT22;2428;48.732;9.148;2023-04-06T02:51:01;1.90;99.90
4828;DHT22;2428;48.732;9.148;2023-04-06T02:53:27;1.80;99.90
4828;DHT22;2428;48.732;9.148;2023-04-06T02:55:53;1.80;99.90
4828;DHT22;2428;48.732;9.148;2023-04-06T02:58:18;1.80;99.90
4828;DHT22;2428;48.732;9.148;2023-04-06T03:00:44;1.80;99.90
4828;DHT22;2428;48.732;9.148;2023-04-06T03:03:10;1.80;99.90
4828;DHT22;2428;48.732;9.148;2023-04-06T03:05:36;1.80;99.90
4828;DHT22;2428;48.732;9.148;2023-04-06T03:08:01;1.70;99.90
4828;DHT22;2428;48.732;9.148;2023-04-06T03:10:27;1.70;99.90
4828;DHT22;2428;48.732;9.148;2023-04-06T03:12:53;1.60;99.90
4828;DHT22;2428;48.732;9.148;2023-04-06T03:15:18;1.60;99.90
4828;DHT22;2428;48.732;9.148;2023-04-06T03:17:44;1.60;99.90
4828;DHT22;2428;48.732;9.148;2023-04-06T03:20:10;1.60;99.90
4828;DHT22;2428;48.732;9.148;2023-04-06T03:22:35;1.50;99.90
4828;DHT22;2428;48.732;9.148;2023-04-06T03:25:01;1.50;99.90
4828;DHT22;2428;48.732;9.148;2023-04-06T03:27:27;1.50;99.90
4828;DHT22;2428;48.732;9.148;2023-04-06T03:29:52;1.50;99.90
4828;DHT22;2428;48.732;9.148;2023-04-06T03:32:18;1.60;99.90
4828;DHT22;2428;48.732;9.148;2023-04-06T03:34:43;1.60;99.90
4828;DHT22;2428;48.732;9.148;2023-04-06T03:37:09;1.70;99.90
4828;DHT22;2428;48.732;9.148;2023-04-06T03:39:35;1.70;99.90
4828;DHT22;2428;48.732;9.148;2023-04-06T03:42:00;1.80;99.90
4828;DHT22;2428;48.732;9.148;2023-04-06T03:44:26;1.80;99.90
4828;DHT22;2428;48.732;9.148;2023-04-06T03:46:52;1.80;99.90
4828;DHT22;2428;48.732;9.148;2023-04-06T03:49:17;1.90;99.90
4828;DHT22;2428;48.732;9.148;2023-04-06T03:51:43;1.90;99.90
4828;DHT22;2428;48.732;9.148;2023-04-06T03:54:08;1.80;99.90
4828;DHT22;2428;48.732;9.148;2023-04-06T03:56:34;1.70;99.90
4828;DHT22;2428;48.732;9.148;2023-04-06T03:59:00;1.70;99.90
4828;DHT22;2428;48.732;9.148;2023-04-06T04:01:27;1.60;99.90
4828;DHT22;2428;48.732;9.148;2023-04-06T04:03:53;1.60;99.90
4828;DHT22;2428;48.732;9.148;2023-04-06T04:06:19;1.50;99.90
4828;DHT22;2428;48.732;9.148;2023-04-06T04:08:44;1.50;99.90
4828;DHT22;2428;48.732;9.148;2023-04-06T04:11:10;1.50;99.90
4828;DHT22;2428;48.732;9.148;2023-04-06T04:13:36;1.40;99.90
4828;DHT22;2428;48.732;9.148;2023-04-06T04:16:01;1.40;99.90
4828;DHT22;2428;48.732;9.148;2023-04-06T04:18:27;1.40;99.90
4828;DHT22;2428;48.732;9.148;2023-04-06T04:20:52;1.40;99.90
4828;DHT22;2428;48.732;9.148;2023-04-06T04:23:18;1.30;99.90
4828;DHT22;2428;48.732;9.148;2023-04-06T04:25:44;1.40;99.90
4828;DHT22;2428;48.732;9.148;2023-04-06T04:28:10;1.40;99.90
4828;DHT22;2428;48.732;9.148;2023-04-06T04:30:35;1.40;99.90
4828;DHT22;2428;48.732;9.148;2023-04-06T04:33:01;1.40;99.90
4828;DHT22;2428;48.732;9.148;2023-04-06T04:35:26;1.40;99.90
4828;DHT22;2428;48.732;9.148;2023-04-06T04:37:52;1.40;99.90
4828;DHT22;2428;48.732;9.148;2023-04-06T04:40:18;1.40;99.90
4828;DHT22;2428;48.732;9.148;2023-04-06T04:42:43;1.40;99.90
4828;DHT22;2428;48.732;9.148;2023-04-06T04:45:09;1.40;99.90
4828;DHT22;2428;48.732;9.148;2023-04-06T04:47:35;1.40;99.90
4828;DHT22;2428;48.732;9.148;2023-04-06T04:50:01;1.30;99.90
4828;DHT22;2428;48.732;9.148;2023-04-06T04:52:26;1.30;99.90
4828;DHT22;2428;48.732;9.148;2023-04-06T04:54:52;1.30;99.90
4828;DHT22;2428;48.732;9.148;2023-04-06T04:57:17;1.30;99.90
4828;DHT22;2428;48.732;9.148;2023-04-06T04:59:43;1.30;99.90
4828;DHT22;2428;48.732;9.148;2023-04-06T05:02:09;1.40;99.90
4828;DHT22;2428;48.732;9.148;2023-04-06T05:04:35;1.40;99.90
4828;DHT22;2428;48.732;9.148;2023-04-06T05:07:08;1.50;99.90
4828;DHT22;2428;48.732;9.148;2023-04-06T05:09:34;1.50;99.90
4828;DHT22;2428;48.732;9.148;2023-04-06T05:12:00;1.50;99.90
4828;DHT22;2428;48.732;9.148;2023-04-06T05:14:27;1.50;99.90
4828;DHT22;2428;48.732;9.148;2023-04-06T05:16:52;1.60;99.90
4828;DHT22;2428;48.732;9.148;2023-04-06T05:19:18;1.60;99.90
4828;DHT22;2428;48.732;9.148;2023-04-06T05:21:44;1.60;99.90
4828;DHT22;2428;48.732;9.148;2023-04-06T05:24:10;1.70;99.90
4828;DHT22;2428;48.732;9.148;2023-04-06T05:26:36;1.70;99.90
4828;DHT22;2428;48.732;9.148;2023-04-06T05:29:02;1.80;99.90
4828;DHT22;2428;48.732;9.148;2023-04-06T05:31:28;1.80;99.90
4828;DHT22;2428;48.732;9.148;2023-04-06T05:33:54;1.80;99.90
4828;DHT22;2428;48.732;9.148;2023-04-06T05:36:19;1.90;99.90
4828;DHT22;2428;48.732;9.148;2023-04-06T05:38:45;1.90;99.90
4828;DHT22;2428;48.732;9.148;2023-04-06T05:41:11;1.90;99.90
4828;DHT22;2428;48.732;9.148;2023-04-06T05:43:37;2.00;99.90
4828;DHT22;2428;48.732;9.148;2023-04-06T05:46:02;2.00;99.90
4828;DHT22;2428;48.732;9.148;2023-04-06T05:48:28;2.00;99.90
4828;DHT22;2428;48.732;9.148;2023-04-06T05:50:54;2.10;99.90
4828;DHT22;2428;48.732;9.148;2023-04-06T05:53:20;2.20;99.90
4828;DHT22;2428;48.732;9.148;2023-04-06T05:55:46;2.20;99.90
4828;DHT22;2428;48.732;9.148;2023-04-06T05:58:12;2.20;99.90
4828;DHT22;2428;48.732;9.148;2023-04-06T06:00:38;2.30;99.90
4828;DHT22;2428;48.732;9.148;2023-04-06T06:03:04;2.30;99.90
4828;DHT22;2428;48.732;9.148;2023-04-06T06:05:31;2.40;99.90
4828;DHT22;2428;48.732;9.148;2023-04-06T06:07:56;2.40;99.90
4828;DHT22;2428;48.732;9.148;2023-04-06T06:10:22;2.50;99.90
4828;DHT22;2428;48.732;9.148;2023-04-06T06:12:48;2.50;99.90
4828;DHT22;2428;48.732;9.148;2023-04-06T06:15:14;2.60;99.90
4828;DHT22;2428;48.732;9.148;2023-04-06T06:17:39;2.60;99.90
4828;DHT22;2428;48.732;9.148;2023-04-06T06:20:08;2.60;99.90
4828;DHT22;2428;48.732;9.148;2023-04-06T06:22:34;2.70;99.90
4828;DHT22;2428;48.732;9.148;2023-04-06T06:25:00;2.70;99.90
4828;DHT22;2428;48.732;9.148;2023-04-06T06:27:25;2.80;99.90
4828;DHT22;2428;48.732;9.148;2023-04-06T06:29:51;2.80;99.90
4828;DHT22;2428;48.732;9.148;2023-04-06T06:32:17;2.90;99.90
4828;DHT22;2428;48.732;9.148;2023-04-06T06:34:43;2.90;99.90
4828;DHT22;2428;48.732;9.148;2023-04-06T06:37:09;3.00;99.90
4828;DHT22;2428;48.732;9.148;2023-04-06T06:39:34;3.10;99.90
4828;DHT22;2428;48.732;9.148;2023-04-06T06:42:00;3.10;99.90
4828;DHT22;2428;48.732;9.148;2023-04-06T06:44:27;3.20;99.90
4828;DHT22;2428;48.732;9.148;2023-04-06T06:46:53;3.30;99.90
4828;DHT22;2428;48.732;9.148;2023-04-06T06:49:19;3.40;99.90
4828;DHT22;2428;48.732;9.148;2023-04-06T06:51:45;3.50;99.90
4828;DHT22;2428;48.732;9.148;2023-04-06T06:54:12;3.50;99.90
4828;DHT22;2428;48.732;9.148;2023-04-06T06:56:38;3.60;99.90
4828;DHT22;2428;48.732;9.148;2023-04-06T06:59:04;3.60;99.90
4828;DHT22;2428;48.732;9.148;2023-04-06T07:01:32;3.70;99.90
4828;DHT22;2428;48.732;9.148;2023-04-06T07:03:58;3.80;99.90
4828;DHT22;2428;48.732;9.148;2023-04-06T07:06:24;3.80;99.90
4828;DHT22;2428;48.732;9.148;2023-04-06T07:08:50;4.00;99.90
4828;DHT22;2428;48.732;9.148;2023-04-06T07:11:16;4.00;99.90
4828;DHT22;2428;48.732;9.148;2023-04-06T07:13:42;4.10;99.90
4828;DHT22;2428;48.732;9.148;2023-04-06T07:16:08;4.20;99.90
4828;DHT22;2428;48.732;9.148;2023-04-06T07:18:34;4.30;99.90
4828;DHT22;2428;48.732;9.148;2023-04-06T07:20:59;4.40;99.90
4828;DHT22;2428;48.732;9.148;2023-04-06T07:23:25;4.50;99.90
4828;DHT22;2428;48.732;9.148;2023-04-06T07:25:51;4.60;99.90
4828;DHT22;2428;48.732;9.148;2023-04-06T07:28:18;4.80;99.90
4828;DHT22;2428;48.732;9.148;2023-04-06T07:30:44;4.90;99.90
4828;DHT22;2428;48.732;9.148;2023-04-06T07:33:10;4.90;99.90
4828;DHT22;2428;48.732;9.148;2023-04-06T07:35:36;5.00;99.90
4828;DHT22;2428;48.732;9.148;2023-04-06T07:38:02;5.20;99.90
4828;DHT22;2428;48.732;9.148;2023-04-06T07:40:28;5.20;99.90
4828;DHT22;2428;48.732;9.148;2023-04-06T07:42:53;5.30;99.90
4828;DHT22;2428;48.732;9.148;2023-04-06T07:45:19;5.40;99.90
4828;DHT22;2428;48.732;9.148;2023-04-06T07:47:45;5.50;99.90
4828;DHT22;2428;48.732;9.148;2023-04-06T07:50:11;5.60;99.90
4828;DHT22;2428;48.732;9.148;2023-04-06T07:52:38;5.70;99.90
4828;DHT22;2428;48.732;9.148;2023-04-06T07:55:04;5.70;99.90
4828;DHT22;2428;48.732;9.148;2023-04-06T07:57:29;5.90;99.90
4828;DHT22;2428;48.732;9.148;2023-04-06T07:59:55;6.00;99.90
4828;DHT22;2428;48.732;9.148;2023-04-06T08:02:21;6.10;99.90
4828;DHT22;2428;48.732;9.148;2023-04-06T08:04:47;6.10;99.90
4828;DHT22;2428;48.732;9.148;2023-04-06T08:07:13;6.20;99.90
4828;DHT22;2428;48.732;9.148;2023-04-06T08:09:38;6.30;99.90
4828;DHT22;2428;48.732;9.148;2023-04-06T08:12:04;6.30;99.90
4828;DHT22;2428;48.732;9.148;2023-04-06T08:14:29;6.40;99.90
4828;DHT22;2428;48.732;9.148;2023-04-06T08:16:55;6.40;99.90
4828;DHT22;2428;48.732;9.148;2023-04-06T08:19:21;6.50;99.90
4828;DHT22;2428;48.732;9.148;2023-04-06T08:21:46;6.60;99.90
4828;DHT22;2428;48.732;9.148;2023-04-06T08:24:13;6.80;99.90
4828;DHT22;2428;48.732;9.148;2023-04-06T08:26:39;6.80;99.90
4828;DHT22;2428;48.732;9.148;2023-04-06T08:29:05;6.90;99.90
4828;DHT22;2428;48.732;9.148;2023-04-06T08:31:33;6.90;99.90
4828;DHT22;2428;48.732;9.148;2023-04-06T08:33:59;7.00;99.90
4828;DHT22;2428;48.732;9.148;2023-04-06T08:36:25;7.10;99.90
4828;DHT22;2428;48.732;9.148;2023-04-06T08:38:51;7.20;99.90
4828;DHT22;2428;48.732;9.148;2023-04-06T08:41:17;7.40;99.90
4828;DHT22;2428;48.732;9.148;2023-04-06T08:43:53;7.60;99.90
4828;DHT22;2428;48.732;9.148;2023-04-06T08:46:21;7.70;99.90
4828;DHT22;2428;48.732;9.148;2023-04-06T08:48:48;7.80;99.90
4828;DHT22;2428;48.732;9.148;2023-04-06T08:51:15;8.00;99.90
4828;DHT22;2428;48.732;9.148;2023-04-06T08:53:41;8.10;99.90
4828;DHT22;2428;48.732;9.148;2023-04-06T08:56:07;8.10;99.90
4828;DHT22;2428;48.732;9.148;2023-04-06T08:58:35;8.10;99.90
4828;DHT22;2428;48.732;9.148;2023-04-06T09:01:08;8.20;99.90
4828;DHT22;2428;48.732;9.148;2023-04-06T09:03:38;8.10;99.90
4828;DHT22;2428;48.732;9.148;2023-04-06T09:06:07;8.20;99.90
4828;DHT22;2428;48.732;9.148;2023-04-06T09:08:34;8.30;99.90
4828;DHT22;2428;48.732;9.148;2023-04-06T09:11:04;8.30;99.90
4828;DHT22;2428;48.732;9.148;2023-04-06T09:13:30;8.40;99.90
4828;DHT22;2428;48.732;9.148;2023-04-06T09:16:04;8.50;99.90
4828;DHT22;2428;48.732;9.148;2023-04-06T09:18:31;8.60;99.90
4828;DHT22;2428;48.732;9.148;2023-04-06T09:21:07;8.70;99.90
4828;DHT22;2428;48.732;9.148;2023-04-06T09:23:33;8.80;99.90
4828;DHT22;2428;48.732;9.148;2023-04-06T09:31:08;9.20;99.90
4828;DHT22;2428;48.732;9.148;2023-04-06T09:33:38;9.20;99.90
4828;DHT22;2428;48.732;9.148;2023-04-06T09:36:05;9.20;99.20
4828;DHT22;2428;48.732;9.148;2023-04-06T09:38:31;9.30;99.90
4828;DHT22;2428;48.732;9.148;2023-04-06T09:40:56;9.30;99.90
4828;DHT22;2428;48.732;9.148;2023-04-06T09:43:29;9.30;99.00
4828;DHT22;2428;48.732;9.148;2023-04-06T09:45:56;9.50;99.40
4828;DHT22;2428;48.732;9.148;2023-04-06T09:48:22;9.60;98.90
4828;DHT22;2428;48.732;9.148;2023-04-06T09:50:50;9.60;97.70
4828;DHT22;2428;48.732;9.148;2023-04-06T09:53:19;9.70;94.30
4828;DHT22;2428;48.732;9.148;2023-04-06T09:55:47;9.70;95.50
4828;DHT22;2428;48.732;9.148;2023-04-06T09:58:19;9.90;97.90
4828;DHT22;2428;48.732;9.148;2023-04-06T10:06:11;10.90;95.90
4828;DHT22;2428;48.732;9.148;2023-04-06T10:08:40;11.60;94.60
4828;DHT22;2428;48.732;9.148;2023-04-06T10:11:07;12.90;93.20
4828;DHT22;2428;48.732;9.148;2023-04-06T10:13:33;13.90;84.20
4828;DHT22;2428;48.732;9.148;2023-04-06T10:16:00;15.40;87.70
4828;DHT22;2428;48.732;9.148;2023-04-06T10:18:27;16.50;75.30
4828;DHT22;2428;48.732;9.148;2023-04-06T10:21:12;17.10;73.10
4828;DHT22;2428;48.732;9.148;2023-04-06T10:23:48;17.10;71.10
4828;DHT22;2428;48.732;9.148;2023-04-06T10:26:17;15.20;62.70
4828;DHT22;2428;48.732;9.148;2023-04-06T10:28:44;14.10;65.90
4828;DHT22;2428;48.732;9.148;2023-04-06T10:31:11;15.40;67.60
4828;DHT22;2428;48.732;9.148;2023-04-06T10:33:37;17.40;66.90
4828;DHT22;2428;48.732;9.148;2023-04-06T10:36:22;19.30;61.40
4828;DHT22;2428;48.732;9.148;2023-04-06T10:39:00;21.40;61.90
4828;DHT22;2428;48.732;9.148;2023-04-06T10:41:34;22.00;53.70
4828;DHT22;2428;48.732;9.148;2023-04-06T10:44:00;22.40;50.30
4828;DHT22;2428;48.732;9.148;2023-04-06T10:46:28;23.10;48.60
4828;DHT22;2428;48.732;9.148;2023-04-06T10:48:54;23.50;49.10
4828;DHT22;2428;48.732;9.148;2023-04-06T10:51:25;24.30;50.00
4828;DHT22;2428;48.732;9.148;2023-04-06T10:53:53;25.00;47.10
4828;DHT22;2428;48.732;9.148;2023-04-06T10:56:22;24.90;45.60
4828;DHT22;2428;48.732;9.148;2023-04-06T10:58:49;24.50;43.80
4828;DHT22;2428;48.732;9.148;2023-04-06T11:01:17;24.50;44.20
4828;DHT22;2428;48.732;9.148;2023-04-06T11:03:47;24.40;43.70
4828;DHT22;2428;48.732;9.148;2023-04-06T11:06:22;23.10;40.50
4828;DHT22;2428;48.732;9.148;2023-04-06T11:08:49;22.20;42.20
4828;DHT22;2428;48.732;9.148;2023-04-06T11:11:16;22.30;44.50
4828;DHT22;2428;48.732;9.148;2023-04-06T11:13:48;22.60;44.10
4828;DHT22;2428;48.732;9.148;2023-04-06T11:18:47;24.60;43.70
4828;DHT22;2428;48.732;9.148;2023-04-06T11:21:13;23.40;40.90
4828;DHT22;2428;48.732;9.148;2023-04-06T11:23:39;23.80;41.80
4828;DHT22;2428;48.732;9.148;2023-04-06T11:26:04;24.60;42.10
4828;DHT22;2428;48.732;9.148;2023-04-06T11:28:35;25.50;42.00
4828;DHT22;2428;48.732;9.148;2023-04-06T11:31:01;25.90;40.50
4828;DHT22;2428;48.732;9.148;2023-04-06T11:33:26;25.60;39.20
4828;DHT22;2428;48.732;9.148;2023-04-06T11:35:52;24.50;37.50
4828;DHT22;2428;48.732;9.148;2023-04-06T11:38:18;23.10;42.10
4828;DHT22;2428;48.732;9.148;2023-04-06T11:40:45;23.20;40.40
4828;DHT22;2428;48.732;9.148;2023-04-06T11:43:11;22.40;38.90
4828;DHT22;2428;48.732;9.148;2023-04-06T11:45:41;21.60;40.80
4828;DHT22;2428;48.732;9.148;2023-04-06T11:48:18;20.70;41.30
4828;DHT22;2428;48.732;9.148;2023-04-06T11:50:46;19.80;43.20
4828;DHT22;2428;48.732;9.148;2023-04-06T11:53:13;19.40;43.00
4828;DHT22;2428;48.732;9.148;2023-04-06T11:55:38;18.60;43.30
4828;DHT22;2428;48.732;9.148;2023-04-06T11:58:04;18.20;45.30
4828;DHT22;2428;48.732;9.148;2023-04-06T12:00:30;17.30;44.80
4828;DHT22;2428;48.732;9.148;2023-04-06T12:03:00;16.30;44.10
4828;DHT22;2428;48.732;9.148;2023-04-06T12:05:25;15.40;46.70
4828;DHT22;2428;48.732;9.148;2023-04-06T12:07:51;14.80;46.90
4828;DHT22;2428;48.732;9.148;2023-04-06T12:10:17;14.50;47.40
4828;DHT22;2428;48.732;9.148;2023-04-06T12:12:42;14.50;50.40
4828;DHT22;2428;48.732;9.148;2023-04-06T12:15:09;14.30;49.30
4828;DHT22;2428;48.732;9.148;2023-04-06T12:17:34;14.40;51.20
4828;DHT22;2428;48.732;9.148;2023-04-06T12:20:00;14.20;48.30
4828;DHT22;2428;48.732;9.148;2023-04-06T12:22:26;14.00;49.40
4828;DHT22;2428;48.732;9.148;2023-04-06T12:24:52;14.00;51.40
4828;DHT22;2428;48.732;9.148;2023-04-06T12:27:17;13.70;50.00
4828;DHT22;2428;48.732;9.148;2023-04-06T12:29:43;13.40;48.80
4828;DHT22;2428;48.732;9.148;2023-04-06T12:32:08;13.40;51.30
4828;DHT22;2428;48.732;9.148;2023-04-06T12:34:34;13.00;50.60
4828;DHT22;2428;48.732;9.148;2023-04-06T12:37:00;12.80;50.50
4828;DHT22;2428;48.732;9.148;2023-04-06T12:39:27;13.00;52.80
4828;DHT22;2428;48.732;9.148;2023-04-06T12:41:53;13.10;52.90
4828;DHT22;2428;48.732;9.148;2023-04-06T12:44:18;13.00;52.60
4828;DHT22;2428;48.732;9.148;2023-04-06T12:46:44;13.10;52.90
4828;DHT22;2428;48.732;9.148;2023-04-06T12:49:10;13.10;51.50
4828;DHT22;2428;48.732;9.148;2023-04-06T12:51:36;13.00;50.40
4828;DHT22;2428;48.732;9.148;2023-04-06T12:54:02;13.00;52.00
4828;DHT22;2428;48.732;9.148;2023-04-06T12:56:28;12.90;51.20
4828;DHT22;2428;48.732;9.148;2023-04-06T12:58:53;12.90;50.70
4828;DHT22;2428;48.732;9.148;2023-04-06T13:01:19;12.70;53.50
4828;DHT22;2428;48.732;9.148;2023-04-06T13:03:45;12.50;51.00
4828;DHT22;2428;48.732;9.148;2023-04-06T13:06:11;12.20;50.10
4828;DHT22;2428;48.732;9.148;2023-04-06T13:08:38;12.10;51.90
4828;DHT22;2428;48.732;9.148;2023-04-06T13:11:04;12.30;53.00
4828;DHT22;2428;48.732;9.148;2023-04-06T13:13:30;12.40;52.30
4828;DHT22;2428;48.732;9.148;2023-04-06T13:16:06;12.30;52.00
4828;DHT22;2428;48.732;9.148;2023-04-06T13:18:32;12.30;51.30
4828;DHT22;2428;48.732;9.148;2023-04-06T13:20:58;12.30;50.40
4828;DHT22;2428;48.732;9.148;2023-04-06T13:23:27;12.50;52.20
4828;DHT22;2428;48.732;9.148;2023-04-06T13:26:19;12.50;50.70
4828;DHT22;2428;48.732;9.148;2023-04-06T13:28:45;12.70;52.10
4828;DHT22;2428;48.732;9.148;2023-04-06T13:31:11;12.90;53.50
4828;DHT22;2428;48.732;9.148;2023-04-06T13:33:36;13.10;51.60
4828;DHT22;2428;48.732;9.148;2023-04-06T13:36:03;13.30;51.90
4828;DHT22;2428;48.732;9.148;2023-04-06T13:38:29;13.40;53.90
4828;DHT22;2428;48.732;9.148;2023-04-06T13:40:55;13.40;51.70
4828;DHT22;2428;48.732;9.148;2023-04-06T13:43:21;13.50;54.20
4828;DHT22;2428;48.732;9.148;2023-04-06T13:45:51;13.40;49.40
4828;DHT22;2428;48.732;9.148;2023-04-06T13:48:18;13.00;49.10
4828;DHT22;2428;48.732;9.148;2023-04-06T13:50:44;12.80;50.70
4828;DHT22;2428;48.732;9.148;2023-04-06T13:53:11;12.80;52.10
4828;DHT22;2428;48.732;9.148;2023-04-06T13:55:36;12.90;51.70
4828;DHT22;2428;48.732;9.148;2023-04-06T13:58:02;13.00;51.00
4828;DHT22;2428;48.732;9.148;2023-04-06T14:00:27;13.10;50.90
4828;DHT22;2428;48.732;9.148;2023-04-06T14:02:54;13.20;51.00
4828;DHT22;2428;48.732;9.148;2023-04-06T14:05:20;13.30;51.40
4828;DHT22;2428;48.732;9.148;2023-04-06T14:07:47;13.50;53.10
4828;DHT22;2428;48.732;9.148;2023-04-06T14:10:12;13.60;53.20
4828;DHT22;2428;48.732;9.148;2023-04-06T14:12:42;13.80;52.40
4828;DHT22;2428;48.732;9.148;2023-04-06T14:15:10;13.80;51.60
4828;DHT22;2428;48.732;9.148;2023-04-06T14:17:36;13.90;51.70
4828;DHT22;2428;48.732;9.148;2023-04-06T14:20:03;13.90;50.10
4828;DHT22;2428;48.732;9.148;2023-04-06T14:22:29;13.50;51.20
4828;DHT22;2428;48.732;9.148;2023-04-06T14:24:55;13.70;52.20
4828;DHT22;2428;48.732;9.148;2023-04-06T14:27:21;13.90;52.00
4828;DHT22;2428;48.732;9.148;2023-04-06T14:29:47;14.00;51.30
4828;DHT22;2428;48.732;9.148;2023-04-06T14:32:12;14.10;51.40
4828;DHT22;2428;48.732;9.148;2023-04-06T14:34:38;14.20;51.70
4828;DHT22;2428;48.732;9.148;2023-04-06T14:37:03;14.30;51.20
4828;DHT22;2428;48.732;9.148;2023-04-06T14:39:29;14.30;49.80
4828;DHT22;2428;48.732;9.148;2023-04-06T14:41:55;14.40;55.30
4828;DHT22;2428;48.732;9.148;2023-04-06T14:44:21;14.40;52.20
4828;DHT22;2428;48.732;9.148;2023-04-06T14:46:46;14.50;50.70
4828;DHT22;2428;48.732;9.148;2023-04-06T14:49:12;14.50;50.90
4828;DHT22;2428;48.732;9.148;2023-04-06T14:51:37;14.30;51.10
4828;DHT22;2428;48.732;9.148;2023-04-06T14:54:04;14.30;51.00
4828;DHT22;2428;48.732;9.148;2023-04-06T14:56:30;14.30;49.70
4828;DHT22;2428;48.732;9.148;2023-04-06T14:58:58;14.40;51.80
4828;DHT22;2428;48.732;9.148;2023-04-06T15:01:24;14.30;52.90
4828;DHT22;2428;48.732;9.148;2023-04-06T15:03:49;14.20;53.20
4828;DHT22;2428;48.732;9.148;2023-04-06T15:06:16;14.20;54.50
4828;DHT22;2428;48.732;9.148;2023-04-06T15:08:44;14.10;54.20
4828;DHT22;2428;48.732;9.148;2023-04-06T15:11:11;14.10;51.20
4828;DHT22;2428;48.732;9.148;2023-04-06T15:13:37;14.00;52.40
4828;DHT22;2428;48.732;9.148;2023-04-06T15:16:03;13.90;52.00
4828;DHT22;2428;48.732;9.148;2023-04-06T15:18:29;13.40;52.10
4828;DHT22;2428;48.732;9.148;2023-04-06T15:20:54;13.40;53.80
4828;DHT22;2428;48.732;9.148;2023-04-06T15:23:20;13.50;55.10
4828;DHT22;2428;48.732;9.148;2023-04-06T15:25:46;13.50;52.20
4828;DHT22;2428;48.732;9.148;2023-04-06T15:28:12;13.60;51.00
4828;DHT22;2428;48.732;9.148;2023-04-06T15:30:38;13.20;52.30
4828;DHT22;2428;48.732;9.148;2023-04-06T15:33:04;13.00;54.30
4828;DHT22;2428;48.732;9.148;2023-04-06T15:35:32;12.80;54.60
4828;DHT22;2428;48.732;9.148;2023-04-06T15:37:59;12.70;54.40
4828;DHT22;2428;48.732;9.148;2023-04-06T15:40:25;12.60;54.60
4828;DHT22;2428;48.732;9.148;2023-04-06T15:42:51;12.60;55.20
4828;DHT22;2428;48.732;9.148;2023-04-06T15:45:17;12.40;54.60
4828;DHT22;2428;48.732;9.148;2023-04-06T15:47:44;12.50;54.80
4828;DHT22;2428;48.732;9.148;2023-04-06T15:50:11;12.50;55.10
4828;DHT22;2428;48.732;9.148;2023-04-06T15:52:38;12.40;54.60
4828;DHT22;2428;48.732;9.148;2023-04-06T15:55:05;12.50;54.80
4828;DHT22;2428;48.732;9.148;2023-04-06T15:57:31;12.50;53.80
4828;DHT22;2428;48.732;9.148;2023-04-06T15:59:57;12.40;54.20
4828;DHT22;2428;48.732;9.148;2023-04-06T16:02:23;12.40;54.70
4828;DHT22;2428;48.732;9.148;2023-04-06T16:04:58;12.20;55.10
4828;DHT22;2428;48.732;9.148;2023-04-06T16:07:27;12.30;59.20
4828;DHT22;2428;48.732;9.148;2023-04-06T16:09:53;12.30;57.20
4828;DHT22;2428;48.732;9.148;2023-04-06T16:12:19;12.30;58.00
4828;DHT22;2428;48.732;9.148;2023-04-06T16:14:45;12.20;57.10
4828;DHT22;2428;48.732;9.148;2023-04-06T16:17:12;12.20;56.30
4828;DHT22;2428;48.732;9.148;2023-04-06T16:19:38;12.10;57.50